sensor_id;sensor_type;location;lat;lon;timestamp;pressure;altitude;pressure_sealevel;temperature;humidity
26563;BME280;14217;50.986;5.826;2023-02-28T00:02:53;102321.19;;;16.27;39.12
26563;BME280;14217;50.986;5.826;2023-02-28T00:07:55;102322.84;;;16.37;39.03
26563;BME280;14217;50.986;5.826;2023-02-28T00:13:04;102315.94;;;16.25;39.30
26563;BME280;14217;50.986;5.826;2023-02-28T00:18:06;102315.16;;;16.14;39.66
26563;BME280;14217;50.986;5.826;2023-02-28T00:23:08;102311.53;;;16.24;39.40
26563;BME280;14217;50.986;5.826;2023-02-28T00:28:10;102316.91;;;16.17;39.55
26563;BME280;14217;50.986;5.826;2023-02-28T00:33:12;102321.38;;;16.12;39.39
26563;BME280;14217;50.986;5.826;2023-02-28T00:38:14;102316.03;;;16.16;39.32
26563;BME280;14217;50.986;5.826;2023-02-28T00:43:17;102322.28;;;16.11;39.67
26563;BME280;14217;50.986;5.826;2023-02-28T00:48:19;102331.84;;;16.21;39.53
26563;BME280;14217;50.986;5.826;2023-02-28T00:53:21;102333.69;;;16.14;39.45
26563;BME280;14217;50.986;5.826;2023-02-28T00:58:24;102326.50;;;16.27;39.42
26563;BME280;14217;50.986;5.826;2023-02-28T01:03:26;102337.06;;;16.29;39.13
26563;BME280;14217;50.986;5.826;2023-02-28T01:08:28;102336.13;;;16.34;39.03
26563;BME280;14217;50.986;5.826;2023-02-28T01:13:30;102338.84;;;16.28;39.38
26563;BME280;14217;50.986;5.826;2023-02-28T01:18:35;102342.34;;;16.27;39.14
26563;BME280;14217;50.986;5.826;2023-02-28T01:23:39;102343.31;;;16.21;39.30
26563;BME280;14217;50.986;5.826;2023-02-28T01:28:41;102351.16;;;16.29;39.51
26563;BME280;14217;50.986;5.826;2023-02-28T01:33:44;102338.84;;;16.25;39.43
26563;BME280;14217;50.986;5.826;2023-02-28T01:38:46;102332.69;;;16.23;39.27
26563;BME280;14217;50.986;5.826;2023-02-28T01:48:54;102323.81;;;16.30;39.22
26563;BME280;14217;50.986;5.826;2023-02-28T01:54:03;102324.84;;;16.17;39.44
26563;BME280;14217;50.986;5.826;2023-02-28T01:59:08;102319.41;;;16.29;39.09
26563;BME280;14217;50.986;5.826;2023-02-28T02:04:10;102312.38;;;16.28;39.50
26563;BME280;14217;50.986;5.826;2023-02-28T02:09:13;102315.03;;;16.26;39.26
26563;BME280;14217;50.986;5.826;2023-02-28T02:14:23;102312.25;;;16.40;39.05
26563;BME280;14217;50.986;5.826;2023-02-28T02:25:12;102301.81;;;16.26;39.54
26563;BME280;14217;50.986;5.826;2023-02-28T02:41:18;102296.78;;;16.03;39.94
26563;BME280;14217;50.986;5.826;2023-02-28T02:46:28;102290.50;;;16.15;39.74
26563;BME280;14217;50.986;5.826;2023-02-28T02:51:32;102290.50;;;16.14;39.82
26563;BME280;14217;50.986;5.826;2023-02-28T02:56:36;102289.59;;;16.16;39.48
26563;BME280;14217;50.986;5.826;2023-02-28T03:01:41;102293.06;;;16.20;39.60
26563;BME280;14217;50.986;5.826;2023-02-28T03:06:43;102297.38;;;16.30;39.25
26563;BME280;14217;50.986;5.826;2023-02-28T03:11:47;102295.66;;;16.28;39.47
26563;BME280;14217;50.986;5.826;2023-02-28T03:27:54;102295.31;;;16.51;39.15
26563;BME280;14217;50.986;5.826;2023-02-28T03:33:15;102292.97;;;16.29;39.28
26563;BME280;14217;50.986;5.826;2023-02-28T03:38:29;102302.66;;;16.29;39.24
26563;BME280;14217;50.986;5.826;2023-02-28T03:43:35;102301.69;;;16.37;39.13
26563;BME280;14217;50.986;5.826;2023-02-28T03:48:44;102295.59;;;16.29;39.51
26563;BME280;14217;50.986;5.826;2023-02-28T03:53:53;102300.84;;;16.34;39.27
26563;BME280;14217;50.986;5.826;2023-02-28T03:59:27;102296.44;;;16.34;39.02
26563;BME280;14217;50.986;5.826;2023-02-28T04:04:29;102305.44;;;16.19;39.35
26563;BME280;14217;50.986;5.826;2023-02-28T04:09:32;102293.06;;;16.20;39.65
26563;BME280;14217;50.986;5.826;2023-02-28T04:14:34;102289.31;;;16.39;39.13
26563;BME280;14217;50.986;5.826;2023-02-28T04:19:36;102299.81;;;16.45;38.64
26563;BME280;14217;50.986;5.826;2023-02-28T04:24:38;102298.22;;;16.32;38.94
26563;BME280;14217;50.986;5.826;2023-02-28T04:29:43;102305.03;;;16.53;38.69
26563;BME280;14217;50.986;5.826;2023-02-28T04:34:46;102295.31;;;16.51;38.65
26563;BME280;14217;50.986;5.826;2023-02-28T04:39:48;102307.63;;;16.55;38.57
26563;BME280;14217;50.986;5.826;2023-02-28T04:44:50;102301.00;;;16.20;39.59
26563;BME280;14217;50.986;5.826;2023-02-28T04:49:52;102308.75;;;16.35;39.35
26563;BME280;14217;50.986;5.826;2023-02-28T04:54:54;102293.47;;;16.59;38.42
26563;BME280;14217;50.986;5.826;2023-02-28T04:59:56;102300.03;;;16.30;39.04
26563;BME280;14217;50.986;5.826;2023-02-28T05:04:58;102306.84;;;16.48;38.77
26563;BME280;14217;50.986;5.826;2023-02-28T05:10:01;102306.97;;;16.36;39.06
26563;BME280;14217;50.986;5.826;2023-02-28T05:15:03;102304.31;;;16.39;38.72
26563;BME280;14217;50.986;5.826;2023-02-28T05:20:07;102317.56;;;16.37;38.94
26563;BME280;14217;50.986;5.826;2023-02-28T05:25:19;102312.97;;;16.52;38.61
26563;BME280;14217;50.986;5.826;2023-02-28T05:30:23;102314.91;;;16.37;38.78
26563;BME280;14217;50.986;5.826;2023-02-28T05:35:25;102314.16;;;16.26;39.19
26563;BME280;14217;50.986;5.826;2023-02-28T05:40:27;102321.25;;;16.25;38.97
26563;BME280;14217;50.986;5.826;2023-02-28T05:45:29;102315.75;;;16.42;38.82
26563;BME280;14217;50.986;5.826;2023-02-28T05:50:31;102314.13;;;16.29;39.16
26563;BME280;14217;50.986;5.826;2023-02-28T05:55:34;102326.28;;;16.44;38.85
26563;BME280;14217;50.986;5.826;2023-02-28T06:00:37;102322.78;;;16.43;38.56
26563;BME280;14217;50.986;5.826;2023-02-28T06:05:42;102326.34;;;16.42;38.57
26563;BME280;14217;50.986;5.826;2023-02-28T06:10:44;102320.25;;;16.34;38.73
26563;BME280;14217;50.986;5.826;2023-02-28T06:15:47;102328.03;;;16.46;38.49
26563;BME280;14217;50.986;5.826;2023-02-28T06:20:55;102334.28;;;16.42;38.70
26563;BME280;14217;50.986;5.826;2023-02-28T06:25:57;102334.22;;;16.45;38.78
26563;BME280;14217;50.986;5.826;2023-02-28T06:30:59;102345.72;;;16.40;38.46
26563;BME280;14217;50.986;5.826;2023-02-28T06:36:07;102341.50;;;16.25;39.16
26563;BME280;14217;50.986;5.826;2023-02-28T06:41:10;102335.97;;;16.46;38.57
26563;BME280;14217;50.986;5.826;2023-02-28T06:46:13;102343.34;;;16.18;39.10
26563;BME280;14217;50.986;5.826;2023-02-28T06:51:19;102341.53;;;16.23;38.78
26563;BME280;14217;50.986;5.826;2023-02-28T06:56:25;102347.56;;;16.33;38.48
26563;BME280;14217;50.986;5.826;2023-02-28T07:01:27;102362.75;;;16.17;38.88
26563;BME280;14217;50.986;5.826;2023-02-28T07:06:30;102370.53;;;16.31;38.53
26563;BME280;14217;50.986;5.826;2023-02-28T07:11:32;102374.19;;;16.18;39.15
26563;BME280;14217;50.986;5.826;2023-02-28T07:16:34;102383.63;;;16.45;38.70
26563;BME280;14217;50.986;5.826;2023-02-28T07:21:39;102384.78;;;16.15;39.25
26563;BME280;14217;50.986;5.826;2023-02-28T07:26:41;102382.03;;;16.27;38.97
26563;BME280;14217;50.986;5.826;2023-02-28T07:31:43;102382.75;;;16.44;38.50
26563;BME280;14217;50.986;5.826;2023-02-28T07:36:47;102380.91;;;16.48;38.38
26563;BME280;14217;50.986;5.826;2023-02-28T07:41:51;102390.00;;;16.24;38.83
26563;BME280;14217;50.986;5.826;2023-02-28T07:46:54;102385.28;;;16.52;38.13
26563;BME280;14217;50.986;5.826;2023-02-28T07:51:56;102384.53;;;16.41;38.59
26563;BME280;14217;50.986;5.826;2023-02-28T07:56:58;102383.50;;;16.54;38.20
26563;BME280;14217;50.986;5.826;2023-02-28T08:02:02;102389.78;;;16.44;38.52
26563;BME280;14217;50.986;5.826;2023-02-28T08:07:04;102385.41;;;16.40;38.69
26563;BME280;14217;50.986;5.826;2023-02-28T08:12:07;102396.03;;;16.38;38.41
26563;BME280;14217;50.986;5.826;2023-02-28T08:17:11;102397.09;;;16.22;38.72
26563;BME280;14217;50.986;5.826;2023-02-28T08:22:13;102393.47;;;16.29;38.34
26563;BME280;14217;50.986;5.826;2023-02-28T08:27:16;102401.44;;;16.26;38.70
26563;BME280;14217;50.986;5.826;2023-02-28T08:32:18;102396.97;;;16.31;38.41
26563;BME280;14217;50.986;5.826;2023-02-28T08:37:30;102405.66;;;16.45;37.99
26563;BME280;14217;50.986;5.826;2023-02-28T08:42:32;102405.72;;;16.39;37.70
26563;BME280;14217;50.986;5.826;2023-02-28T08:47:34;102403.06;;;16.41;37.67
26563;BME280;14217;50.986;5.826;2023-02-28T08:52:36;102397.03;;;16.28;37.61
26563;BME280;14217;50.986;5.826;2023-02-28T08:57:38;102392.53;;;16.35;37.66
26563;BME280;14217;50.986;5.826;2023-02-28T09:02:40;102392.75;;;16.13;37.72
26563;BME280;14217;50.986;5.826;2023-02-28T09:07:44;102401.56;;;16.14;37.56
26563;BME280;14217;50.986;5.826;2023-02-28T09:12:46;102387.31;;;16.27;36.63
26563;BME280;14217;50.986;5.826;2023-02-28T09:17:48;102388.97;;;16.39;36.24
26563;BME280;14217;50.986;5.826;2023-02-28T09:22:50;102388.31;;;16.17;36.63
26563;BME280;14217;50.986;5.826;2023-02-28T09:27:52;102384.75;;;16.21;36.46
26563;BME280;14217;50.986;5.826;2023-02-28T09:32:54;102377.94;;;15.95;38.43
26563;BME280;14217;50.986;5.826;2023-02-28T09:37:56;102381.53;;;15.88;39.42
26563;BME280;14217;50.986;5.826;2023-02-28T09:43:00;102375.25;;;16.01;39.03
26563;BME280;14217;50.986;5.826;2023-02-28T09:48:06;102375.13;;;16.14;38.36
26563;BME280;14217;50.986;5.826;2023-02-28T09:53:35;102371.56;;;16.16;37.86
26563;BME280;14217;50.986;5.826;2023-02-28T09:58:47;102367.03;;;16.29;36.76
26563;BME280;14217;50.986;5.826;2023-02-28T10:03:59;102365.34;;;16.22;36.96
26563;BME280;14217;50.986;5.826;2023-02-28T10:09:11;102376.03;;;16.10;36.70
26563;BME280;14217;50.986;5.826;2023-02-28T10:14:18;102380.41;;;16.12;36.76
26563;BME280;14217;50.986;5.826;2023-02-28T10:19:46;102384.84;;;16.10;36.87
26563;BME280;14217;50.986;5.826;2023-02-28T10:24:54;102367.25;;;16.11;37.00
26563;BME280;14217;50.986;5.826;2023-02-28T10:30:00;102367.19;;;16.14;37.56
26563;BME280;14217;50.986;5.826;2023-02-28T10:45:22;102368.91;;;16.18;36.56
26563;BME280;14217;50.986;5.826;2023-02-28T10:55:29;102358.22;;;16.27;36.23
26563;BME280;14217;50.986;5.826;2023-02-28T11:00:35;102358.16;;;16.33;35.82
26563;BME280;14217;50.986;5.826;2023-02-28T11:05:37;102345.94;;;16.23;35.63
26563;BME280;14217;50.986;5.826;2023-02-28T11:10:48;102343.34;;;16.18;35.34
26563;BME280;14217;50.986;5.826;2023-02-28T11:15:52;102338.97;;;16.16;35.25
26563;BME280;14217;50.986;5.826;2023-02-28T11:20:57;102335.53;;;16.08;34.97
26563;BME280;14217;50.986;5.826;2023-02-28T11:26:04;102339.75;;;16.25;34.44
26563;BME280;14217;50.986;5.826;2023-02-28T11:36:23;102331.16;;;16.02;34.44
26563;BME280;14217;50.986;5.826;2023-02-28T12:03:27;102324.84;;;16.17;35.92
26563;BME280;14217;50.986;5.826;2023-02-28T12:08:49;102325.78;;;16.11;36.03
26563;BME280;14217;50.986;5.826;2023-02-28T12:14:10;102321.50;;;16.01;36.19
26563;BME280;14217;50.986;5.826;2023-02-28T12:19:20;102324.19;;;15.96;36.34
26563;BME280;14217;50.986;5.826;2023-02-28T12:29:54;102316.09;;;16.10;35.96
26563;BME280;14217;50.986;5.826;2023-02-28T12:35:06;102309.09;;;16.06;36.34
26563;BME280;14217;50.986;5.826;2023-02-28T12:40:17;102303.78;;;16.09;36.12
26563;BME280;14217;50.986;5.826;2023-02-28T12:45:23;102302.88;;;16.12;35.88
26563;BME280;14217;50.986;5.826;2023-02-28T12:50:27;102294.78;;;16.24;35.83
26563;BME280;14217;50.986;5.826;2023-02-28T12:55:40;102286.88;;;16.24;35.91
26563;BME280;14217;50.986;5.826;2023-02-28T13:11:53;102276.53;;;16.01;36.13
26563;BME280;14217;50.986;5.826;2023-02-28T13:16:57;102278.94;;;16.21;35.75
26563;BME280;14217;50.986;5.826;2023-02-28T13:22:00;102259.56;;;16.22;35.74
26563;BME280;14217;50.986;5.826;2023-02-28T13:47:42;102254.34;;;16.17;36.16
26563;BME280;14217;50.986;5.826;2023-02-28T14:19:37;102231.09;;;16.41;35.52
26563;BME280;14217;50.986;5.826;2023-02-28T14:40:38;102219.94;;;16.17;35.93
26563;BME280;14217;50.986;5.826;2023-02-28T14:45:40;102228.97;;;15.98;37.19
26563;BME280;14217;50.986;5.826;2023-02-28T14:50:49;102225.72;;;15.77;39.35
26563;BME280;14217;50.986;5.826;2023-02-28T14:55:52;102222.88;;;15.94;41.94
26563;BME280;14217;50.986;5.826;2023-02-28T15:00:59;102218.38;;;15.99;43.14
26563;BME280;14217;50.986;5.826;2023-02-28T15:06:13;102201.66;;;16.00;44.01
26563;BME280;14217;50.986;5.826;2023-02-28T15:11:16;102221.09;;;15.96;41.85
26563;BME280;14217;50.986;5.826;2023-02-28T15:16:24;102213.22;;;15.90;38.84
26563;BME280;14217;50.986;5.826;2023-02-28T15:21:31;102208.94;;;15.77;35.48
26563;BME280;14217;50.986;5.826;2023-02-28T15:26:39;102216.88;;;15.80;34.84
26563;BME280;14217;50.986;5.826;2023-02-28T15:31:49;102225.66;;;15.80;34.43
26563;BME280;14217;50.986;5.826;2023-02-28T15:36:58;102212.38;;;15.85;33.72
26563;BME280;14217;50.986;5.826;2023-02-28T15:42:18;102212.44;;;15.82;33.49
26563;BME280;14217;50.986;5.826;2023-02-28T15:47:23;102207.09;;;15.88;33.67
26563;BME280;14217;50.986;5.826;2023-02-28T15:52:39;102215.84;;;15.92;33.30
26563;BME280;14217;50.986;5.826;2023-02-28T15:57:44;102208.00;;;15.82;33.77
26563;BME280;14217;50.986;5.826;2023-02-28T16:02:50;102219.44;;;15.88;33.41
26563;BME280;14217;50.986;5.826;2023-02-28T16:07:53;102218.53;;;15.87;33.46
26563;BME280;14217;50.986;5.826;2023-02-28T16:12:56;102222.06;;;15.88;34.74
26563;BME280;14217;50.986;5.826;2023-02-28T16:17:58;102223.91;;;15.79;36.94
26563;BME280;14217;50.986;5.826;2023-02-28T16:23:01;102223.97;;;15.73;37.10
26563;BME280;14217;50.986;5.826;2023-02-28T16:28:08;102226.72;;;15.59;37.57
26563;BME280;14217;50.986;5.826;2023-02-28T16:33:14;102226.72;;;15.62;37.62
26563;BME280;14217;50.986;5.826;2023-02-28T16:38:16;102228.50;;;15.60;37.40
26563;BME280;14217;50.986;5.826;2023-02-28T16:43:22;102229.38;;;15.58;37.29
26563;BME280;14217;50.986;5.826;2023-02-28T16:48:25;102225.88;;;15.57;37.53
26563;BME280;14217;50.986;5.826;2023-02-28T16:53:29;102237.34;;;15.53;37.78
26563;BME280;14217;50.986;5.826;2023-02-28T16:58:31;102241.00;;;15.40;36.89
26563;BME280;14217;50.986;5.826;2023-02-28T17:03:33;102239.19;;;15.47;37.21
26563;BME280;14217;50.986;5.826;2023-02-28T17:08:36;102232.78;;;15.74;36.94
26563;BME280;14217;50.986;5.826;2023-02-28T17:13:38;102240.59;;;15.83;36.53
26563;BME280;14217;50.986;5.826;2023-02-28T17:18:40;102246.72;;;15.88;36.30
26563;BME280;14217;50.986;5.826;2023-02-28T17:23:43;102246.00;;;15.71;36.67
26563;BME280;14217;50.986;5.826;2023-02-28T17:28:48;102253.06;;;15.73;35.70
26563;BME280;14217;50.986;5.826;2023-02-28T17:33:50;102269.72;;;15.80;35.44
26563;BME280;14217;50.986;5.826;2023-02-28T17:38:53;102271.44;;;15.82;35.60
26563;BME280;14217;50.986;5.826;2023-02-28T17:43:57;102281.25;;;15.68;35.68
26563;BME280;14217;50.986;5.826;2023-02-28T17:49:00;102293.56;;;15.71;35.86
26563;BME280;14217;50.986;5.826;2023-02-28T17:54:03;102295.34;;;15.69;35.96
26563;BME280;14217;50.986;5.826;2023-02-28T17:59:05;102293.56;;;15.74;35.70
26563;BME280;14217;50.986;5.826;2023-02-28T18:04:07;102293.56;;;15.74;35.93
26563;BME280;14217;50.986;5.826;2023-02-28T18:09:09;102297.00;;;15.83;35.83
26563;BME280;14217;50.986;5.826;2023-02-28T18:14:11;102294.25;;;15.93;35.29
26563;BME280;14217;50.986;5.826;2023-02-28T18:19:13;102297.94;;;15.76;35.50
26563;BME280;14217;50.986;5.826;2023-02-28T18:24:18;102297.97;;;15.70;35.52
26563;BME280;14217;50.986;5.826;2023-02-28T18:29:23;102301.50;;;15.74;35.47
26563;BME280;14217;50.986;5.826;2023-02-28T18:34:25;102298.06;;;15.58;36.81
26563;BME280;14217;50.986;5.826;2023-02-28T18:39:29;102294.44;;;15.76;36.92
26563;BME280;14217;50.986;5.826;2023-02-28T18:44:31;102298.84;;;15.72;36.76
26563;BME280;14217;50.986;5.826;2023-02-28T18:49:33;102297.94;;;15.79;36.28
26563;BME280;14217;50.986;5.826;2023-02-28T18:54:36;102288.19;;;15.83;36.24
26563;BME280;14217;50.986;5.826;2023-02-28T18:59:38;102299.72;;;15.76;36.05
26563;BME280;14217;50.986;5.826;2023-02-28T19:04:40;102294.44;;;15.74;36.01
26563;BME280;14217;50.986;5.826;2023-02-28T19:09:42;102300.56;;;15.78;35.81
26563;BME280;14217;50.986;5.826;2023-02-28T19:14:44;102305.84;;;15.79;35.60
26563;BME280;14217;50.986;5.826;2023-02-28T19:19:48;102303.22;;;15.76;35.80
26563;BME280;14217;50.986;5.826;2023-02-28T19:24:50;102300.56;;;15.78;35.57
26563;BME280;14217;50.986;5.826;2023-02-28T19:29:53;102307.69;;;15.73;35.47
26563;BME280;14217;50.986;5.826;2023-02-28T19:34:55;102305.91;;;15.75;35.66
26563;BME280;14217;50.986;5.826;2023-02-28T19:39:57;102305.91;;;15.75;35.90
26563;BME280;14217;50.986;5.826;2023-02-28T19:45:00;102313.63;;;15.96;36.28
26563;BME280;14217;50.986;5.826;2023-02-28T19:50:02;102323.44;;;15.83;36.62
26563;BME280;14217;50.986;5.826;2023-02-28T19:55:04;102322.38;;;16.00;36.37
26563;BME280;14217;50.986;5.826;2023-02-28T20:00:08;102322.41;;;15.97;36.38
26563;BME280;14217;50.986;5.826;2023-02-28T20:05:11;102330.44;;;15.86;36.36
26563;BME280;14217;50.986;5.826;2023-02-28T20:10:13;102322.38;;;16.00;36.17
26563;BME280;14217;50.986;5.826;2023-02-28T20:15:15;102323.28;;;15.96;36.05
26563;BME280;14217;50.986;5.826;2023-02-28T20:20:18;102322.44;;;15.94;36.06
26563;BME280;14217;50.986;5.826;2023-02-28T20:25:20;102324.06;;;16.07;35.76
26563;BME280;14217;50.986;5.826;2023-02-28T20:30:22;102324.25;;;15.92;36.11
26563;BME280;14217;50.986;5.826;2023-02-28T20:35:24;102326.72;;;16.04;35.48
26563;BME280;14217;50.986;5.826;2023-02-28T20:40:27;102334.59;;;16.13;35.52
26563;BME280;14217;50.986;5.826;2023-02-28T20:45:29;102324.94;;;16.11;35.38
26563;BME280;14217;50.986;5.826;2023-02-28T20:50:32;102317.31;;;15.78;36.38
26563;BME280;14217;50.986;5.826;2023-02-28T20:55:35;102316.44;;;15.78;36.30
26563;BME280;14217;50.986;5.826;2023-02-28T21:00:37;102312.06;;;15.75;36.63
26563;BME280;14217;50.986;5.826;2023-02-28T21:05:39;102312.88;;;15.79;36.83
26563;BME280;14217;50.986;5.826;2023-02-28T21:10:41;102305.00;;;15.74;36.71
26563;BME280;14217;50.986;5.826;2023-02-28T21:15:43;102308.41;;;15.87;36.08
26563;BME280;14217;50.986;5.826;2023-02-28T21:20:45;102307.66;;;15.74;35.52
26563;BME280;14217;50.986;5.826;2023-02-28T21:25:47;102309.31;;;15.86;42.36
26563;BME280;14217;50.986;5.826;2023-02-28T21:30:50;102314.72;;;15.74;40.79
26563;BME280;14217;50.986;5.826;2023-02-28T21:36:05;102315.53;;;15.80;40.65
26563;BME280;14217;50.986;5.826;2023-02-28T21:41:08;102314.66;;;15.81;40.59
26563;BME280;14217;50.986;5.826;2023-02-28T21:46:14;102314.66;;;15.78;41.06
26563;BME280;14217;50.986;5.826;2023-02-28T21:51:21;102315.63;;;15.67;41.54
26563;BME280;14217;50.986;5.826;2023-02-28T21:56:26;102322.63;;;15.75;41.09
26563;BME280;14217;50.986;5.826;2023-02-28T22:01:36;102321.78;;;15.69;40.52
26563;BME280;14217;50.986;5.826;2023-02-28T22:06:40;102319.88;;;15.86;40.11
26563;BME280;14217;50.986;5.826;2023-02-28T22:11:43;102323.34;;;15.93;39.64
26563;BME280;14217;50.986;5.826;2023-02-28T22:16:45;102318.81;;;16.04;39.06
26563;BME280;14217;50.986;5.826;2023-02-28T22:21:53;102322.44;;;15.94;39.06
26563;BME280;14217;50.986;5.826;2023-02-28T22:26:55;102330.34;;;15.95;38.86
26563;BME280;14217;50.986;5.826;2023-02-28T22:31:59;102325.13;;;15.92;38.51
26563;BME280;14217;50.986;5.826;2023-02-28T22:37:01;102318.09;;;15.90;38.72
26563;BME280;14217;50.986;5.826;2023-02-28T22:42:05;102323.28;;;16.00;38.37
26563;BME280;14217;50.986;5.826;2023-02-28T22:47:07;102323.97;;;16.15;38.01
26563;BME280;14217;50.986;5.826;2023-02-28T22:52:10;102325.75;;;16.13;37.69
26563;BME280;14217;50.986;5.826;2023-02-28T22:57:12;102329.25;;;16.18;37.53
26563;BME280;14217;50.986;5.826;2023-02-28T23:02:14;102321.31;;;16.15;37.66
26563;BME280;14217;50.986;5.826;2023-02-28T23:07:16;102318.72;;;16.13;37.66
26563;BME280;14217;50.986;5.826;2023-02-28T23:12:19;102328.38;;;16.16;37.43
26563;BME280;14217;50.986;5.826;2023-02-28T23:17:21;102330.16;;;16.14;37.58
26563;BME280;14217;50.986;5.826;2023-02-28T23:22:23;102326.59;;;16.19;37.56
26563;BME280;14217;50.986;5.826;2023-02-28T23:27:25;102329.31;;;16.10;37.47
26563;BME280;14217;50.986;5.826;2023-02-28T23:32:27;102325.91;;;15.99;37.64
26563;BME280;14217;50.986;5.826;2023-02-28T23:37:29;102331.09;;;16.11;37.37
26563;BME280;14217;50.986;5.826;2023-02-28T23:42:31;102335.47;;;16.14;37.28
26563;BME280;14217;50.986;5.826;2023-02-28T23:47:33;102327.34;;;16.31;36.90
26563;BME280;14217;50.986;5.826;2023-02-28T23:52:35;102329.06;;;16.32;37.06
26563;BME280;14217;50.986;5.826;2023-02-28T23:57:37;102330.13;;;16.18;37.02
